Time;durP1;ratioP1;P1;durP2;ratioP2;P2;SDS_P1;SDS_P2;PMS_P1;PMS_P2;Temp;Humidity;BMP_temperature;BMP_pressure;BME280_temperature;BME280_humidity;BME280_pressure;Samples;Min_cycle;Max_cycle;Signal;HPM_P1;HPM_P2
2023/06/07 00:01:27;;;;;;;12.43;6.70;;;21.00;93.70;;;;;;5021953;28;20224;-38
2023/06/07 00:03:57;;;;;;;9.73;6.45;;;20.90;93.60;;;;;;5021072;28;20270;-37
2023/06/07 00:06:25;;;;;;;9.15;6.50;;;20.90;93.80;;;;;;5020903;28;20200;-37
2023/06/07 00:08:55;;;;;;;10.60;6.93;;;20.80;93.60;;;;;;5003508;28;20252;-37
2023/06/07 00:11:22;;;;;;;10.45;6.30;;;20.80;94.00;;;;;;5003709;28;20197;-38
2023/06/07 00:13:52;;;;;;;9.60;6.65;;;20.80;93.70;;;;;;5003333;28;20426;-37
2023/06/07 00:16:24;;;;;;;9.90;6.28;;;20.70;93.60;;;;;;5004975;28;20247;-37
2023/06/07 00:18:52;;;;;;;11.90;6.32;;;20.70;93.60;;;;;;5020849;28;20229;-37
2023/06/07 00:21:22;;;;;;;11.75;6.82;;;20.70;93.70;;;;;;5023236;28;20233;-37
2023/06/07 00:23:49;;;;;;;11.68;6.45;;;20.60;93.80;;;;;;5005593;28;20311;-37
2023/06/07 00:26:19;;;;;;;9.77;6.45;;;20.60;93.70;;;;;;5021919;28;20228;-37
2023/06/07 00:28:46;;;;;;;15.32;7.15;;;20.60;93.80;;;;;;5020889;28;20687;-37
2023/06/07 00:31:16;;;;;;;13.02;7.03;;;20.60;93.90;;;;;;5004439;28;20213;-37
2023/06/07 00:33:46;;;;;;;11.75;6.50;;;20.50;93.90;;;;;;5019800;28;20235;-37
2023/06/07 00:36:13;;;;;;;10.55;6.53;;;20.50;93.90;;;;;;5009912;28;20316;-37
2023/06/07 00:38:43;;;;;;;10.68;6.75;;;20.50;93.80;;;;;;5016636;28;20213;-37
2023/06/07 00:41:13;;;;;;;13.75;6.20;;;20.40;93.90;;;;;;5010218;28;20198;-37
2023/06/07 00:43:44;;;;;;;10.57;6.20;;;20.40;93.80;;;;;;5010809;28;20241;-37
2023/06/07 00:46:19;;;;;;;11.07;6.65;;;20.40;93.90;;;;;;5019326;28;20354;-37
2023/06/07 00:48:51;;;;;;;9.57;6.65;;;20.40;94.00;;;;;;5007312;28;20701;-37
2023/06/07 00:51:23;;;;;;;9.88;6.15;;;20.40;94.00;;;;;;5012610;28;20383;-37
2023/06/07 00:53:53;;;;;;;9.98;6.30;;;20.30;93.80;;;;;;5022609;28;20259;-37
2023/06/07 00:56:26;;;;;;;11.10;6.55;;;20.30;93.80;;;;;;5020974;28;20750;-37
2023/06/07 00:58:53;;;;;;;9.07;6.40;;;20.30;93.80;;;;;;5001186;28;20293;-37
2023/06/07 01:01:20;;;;;;;11.68;6.47;;;20.30;94.00;;;;;;5010981;28;20317;-37
2023/06/07 01:03:48;;;;;;;11.30;6.85;;;20.30;93.90;;;;;;5009743;28;20587;-37
2023/06/07 01:06:17;;;;;;;9.65;6.65;;;20.20;94.20;;;;;;5007013;28;20304;-37
2023/06/07 01:08:45;;;;;;;12.52;6.97;;;20.20;94.00;;;;;;5006483;28;20763;-37
2023/06/07 01:11:13;;;;;;;10.93;6.75;;;20.20;94.10;;;;;;5000809;28;20720;-37
2023/06/07 01:13:44;;;;;;;15.63;6.70;;;20.10;94.10;;;;;;5000996;28;20212;-37
2023/06/07 01:16:11;;;;;;;8.90;6.35;;;20.10;94.20;;;;;;5007675;28;20602;-37
2023/06/07 01:18:41;;;;;;;11.35;7.38;;;20.00;94.20;;;;;;5002575;28;20201;-37
2023/06/07 01:21:15;;;;;;;10.38;6.07;;;20.00;94.10;;;;;;5002878;28;20746;-37
2023/06/07 01:23:42;;;;;;;9.20;6.30;;;20.00;94.00;;;;;;5009990;28;20633;-37
2023/06/07 01:26:14;;;;;;;16.80;7.40;;;20.00;94.20;;;;;;4994450;28;21675;-37
2023/06/07 01:28:44;;;;;;;12.60;7.03;;;19.90;94.30;;;;;;5013867;28;20212;-37
2023/06/07 01:31:15;;;;;;;10.02;6.32;;;19.90;94.40;;;;;;5019707;28;20687;-37
2023/06/07 01:33:47;;;;;;;8.65;6.40;;;19.90;94.50;;;;;;5021078;28;20224;-37
2023/06/07 01:36:18;;;;;;;9.77;6.30;;;19.90;94.30;;;;;;5008347;28;20295;-37
2023/06/07 01:38:49;;;;;;;10.57;6.55;;;19.80;94.10;;;;;;5024337;28;20557;-37
2023/06/07 01:41:20;;;;;;;9.63;7.00;;;19.80;94.30;;;;;;5022032;28;20208;-37
2023/06/07 01:43:48;;;;;;;9.98;6.55;;;19.80;94.30;;;;;;5023643;28;20264;-37
2023/06/07 01:46:19;;;;;;;9.48;6.45;;;19.70;94.20;;;;;;5018764;28;20255;-37
2023/06/07 01:48:47;;;;;;;12.77;7.28;;;19.70;94.20;;;;;;5016911;28;20718;-37
2023/06/07 01:51:16;;;;;;;10.95;6.75;;;19.70;94.40;;;;;;5006694;28;20194;-37
2023/06/07 01:53:49;;;;;;;11.80;7.35;;;19.60;94.20;;;;;;5025919;28;20338;-37
2023/06/07 01:56:51;;;;;;;8.98;6.75;;;19.60;94.30;;;;;;5023692;28;20221;-37
2023/06/07 01:59:35;;;;;;;10.38;6.60;;;19.60;94.40;;;;;;5025810;28;20339;-37
2023/06/07 02:02:20;;;;;;;10.40;6.72;;;19.50;94.60;;;;;;5023245;28;20219;-37
2023/06/07 02:04:54;;;;;;;9.90;6.97;;;19.50;94.40;;;;;;5024118;28;20694;-37
2023/06/07 02:07:28;;;;;;;11.45;6.63;;;19.50;94.40;;;;;;5026242;28;20235;-35
2023/06/07 02:10:00;;;;;;;10.35;6.65;;;19.50;94.20;;;;;;5025723;28;20196;-35
2023/06/07 02:12:30;;;;;;;9.02;7.13;;;19.40;94.40;;;;;;5020380;28;20623;-36
2023/06/07 02:15:01;;;;;;;10.10;6.95;;;19.40;94.70;;;;;;5020816;28;20228;-35
2023/06/07 02:17:28;;;;;;;10.50;6.47;;;19.30;94.20;;;;;;5023414;28;20707;-35
2023/06/07 02:19:56;;;;;;;11.05;6.40;;;19.30;94.30;;;;;;5023766;28;20197;-35
2023/06/07 02:22:23;;;;;;;8.40;7.00;;;19.20;94.20;;;;;;5025124;28;20652;-36
2023/06/07 02:24:53;;;;;;;9.98;6.78;;;19.20;94.30;;;;;;5023385;28;20628;-36
2023/06/07 02:27:20;;;;;;;11.77;6.78;;;19.20;94.30;;;;;;5023767;28;20292;-35
2023/06/07 02:29:50;;;;;;;7.68;6.65;;;19.10;94.40;;;;;;5023925;28;20190;-35
2023/06/07 02:32:21;;;;;;;11.25;7.10;;;19.20;94.50;;;;;;5020606;28;20208;-35
2023/06/07 02:34:51;;;;;;;12.65;6.97;;;19.20;94.50;;;;;;5015428;28;20220;-35
2023/06/07 02:37:18;;;;;;;13.00;7.35;;;19.20;94.40;;;;;;5025007;28;20197;-35
2023/06/07 02:39:47;;;;;;;10.75;6.90;;;19.10;94.40;;;;;;5023344;28;20291;-35
2023/06/07 02:42:19;;;;;;;11.30;6.90;;;19.10;94.30;;;;;;5021499;28;20300;-35
2023/06/07 02:44:49;;;;;;;11.50;7.18;;;19.10;94.30;;;;;;5022551;28;20263;-35
2023/06/07 02:47:16;;;;;;;13.40;7.57;;;19.00;94.40;;;;;;5006745;28;20877;-35
2023/06/07 02:49:45;;;;;;;11.88;7.55;;;19.00;94.60;;;;;;5022668;28;20299;-35
2023/06/07 02:52:12;;;;;;;11.35;6.88;;;19.00;94.40;;;;;;5023883;28;20267;-35
2023/06/07 02:54:42;;;;;;;9.70;7.22;;;19.00;94.40;;;;;;5023094;28;20764;-36
2023/06/07 02:57:11;;;;;;;13.63;7.40;;;18.90;94.40;;;;;;5024936;28;20566;-36
2023/06/07 02:59:41;;;;;;;9.55;7.18;;;18.90;94.40;;;;;;5024612;28;20259;-36
2023/06/07 03:02:11;;;;;;;9.73;6.57;;;18.90;94.50;;;;;;5007647;28;20218;-35
2023/06/07 03:04:43;;;;;;;10.55;7.03;;;18.90;94.40;;;;;;5016465;28;20229;-36
2023/06/07 03:07:11;;;;;;;9.05;6.72;;;18.90;94.40;;;;;;5028915;28;20292;-36
2023/06/07 03:09:39;;;;;;;11.20;7.18;;;18.90;94.50;;;;;;5014563;28;20209;-36
2023/06/07 03:12:07;;;;;;;11.60;7.40;;;18.80;94.40;;;;;;5023892;28;20220;-36
2023/06/07 03:14:38;;;;;;;10.45;6.95;;;18.90;94.60;;;;;;5022696;28;20239;-36
2023/06/07 03:17:08;;;;;;;13.13;7.95;;;18.90;94.70;;;;;;5023164;28;20212;-35
2023/06/07 03:19:36;;;;;;;11.60;7.63;;;18.90;94.60;;;;;;5019885;28;20251;-35
2023/06/07 03:22:06;;;;;;;13.23;7.72;;;18.80;94.50;;;;;;5015264;28;20700;-36
2023/06/07 03:24:38;;;;;;;13.23;7.50;;;18.80;94.80;;;;;;5015478;28;20371;-36
2023/06/07 03:27:11;;;;;;;12.35;7.20;;;18.80;94.60;;;;;;5023653;28;20273;-36
2023/06/07 03:29:38;;;;;;;10.57;7.55;;;18.70;94.50;;;;;;5024287;28;20228;-37
2023/06/07 03:32:09;;;;;;;13.52;7.78;;;18.70;94.50;;;;;;5006651;28;20205;-37
2023/06/07 03:34:41;;;;;;;11.48;6.97;;;18.70;94.60;;;;;;5020034;28;20225;-37
2023/06/07 03:37:10;;;;;;;12.90;7.18;;;18.70;94.50;;;;;;5024073;28;20225;-37
2023/06/07 03:39:40;;;;;;;10.48;7.05;;;18.60;94.60;;;;;;5017379;28;20294;-37
2023/06/07 03:42:10;;;;;;;11.85;7.43;;;18.60;94.60;;;;;;5022193;28;20758;-37
2023/06/07 03:44:37;;;;;;;11.25;7.10;;;18.60;94.60;;;;;;5022229;28;20233;-37
2023/06/07 03:47:12;;;;;;;11.90;7.18;;;18.50;94.50;;;;;;5020887;28;20315;-37
2023/06/07 03:49:44;;;;;;;10.70;7.55;;;18.50;94.70;;;;;;5020315;28;20676;-37
2023/06/07 03:52:11;;;;;;;11.95;7.75;;;18.50;94.70;;;;;;5024219;28;20211;-37
2023/06/07 03:54:43;;;;;;;14.00;8.40;;;18.40;94.70;;;;;;5021595;28;20767;-37
2023/06/07 03:57:12;;;;;;;14.10;7.82;;;18.40;94.90;;;;;;5023061;28;20220;-37
2023/06/07 03:59:40;;;;;;;12.07;7.43;;;18.30;94.90;;;;;;5021855;28;20233;-37
2023/06/07 04:02:10;;;;;;;11.30;7.53;;;18.30;94.70;;;;;;5010390;28;20279;-37
2023/06/07 04:04:37;;;;;;;13.85;7.32;;;18.30;94.80;;;;;;5013994;28;20352;-37
2023/06/07 04:07:08;;;;;;;9.98;7.40;;;18.30;94.60;;;;;;5003913;28;20480;-37
2023/06/07 04:09:35;;;;;;;10.70;7.35;;;18.20;94.70;;;;;;5016919;28;20208;-37
2023/06/07 04:12:03;;;;;;;12.23;7.38;;;18.20;94.60;;;;;;5023322;28;20639;-36
2023/06/07 04:14:31;;;;;;;10.23;7.30;;;18.20;94.80;;;;;;5020060;28;20236;-35
2023/06/07 04:17:02;;;;;;;12.20;7.97;;;18.10;94.80;;;;;;5023659;28;20201;-36
2023/06/07 04:19:32;;;;;;;12.05;7.85;;;18.10;94.80;;;;;;5022071;28;20205;-36
2023/06/07 04:22:04;;;;;;;11.65;7.35;;;18.10;94.90;;;;;;5020986;28;20232;-35
2023/06/07 04:24:34;;;;;;;14.45;8.88;;;18.10;94.90;;;;;;5022332;28;20243;-36
2023/06/07 04:27:11;;;;;;;13.02;7.80;;;18.00;95.10;;;;;;5020106;28;20267;-35
2023/06/07 04:29:40;;;;;;;13.07;8.02;;;18.00;95.00;;;;;;5022125;28;20892;-36
2023/06/07 04:32:10;;;;;;;9.98;7.72;;;18.00;94.80;;;;;;5023347;28;20344;-35
2023/06/07 04:34:41;;;;;;;11.68;7.80;;;18.00;94.80;;;;;;5019891;28;20233;-36
2023/06/07 04:37:12;;;;;;;12.20;8.13;;;18.00;95.00;;;;;;5020060;28;20929;-35
2023/06/07 04:39:44;;;;;;;11.68;8.57;;;18.00;95.00;;;;;;5023192;28;20220;-35
2023/06/07 04:42:12;;;;;;;10.95;7.82;;;18.00;94.90;;;;;;5021197;28;20209;-36
2023/06/07 04:44:40;;;;;;;12.27;8.27;;;18.00;95.00;;;;;;5021075;28;20213;-36
2023/06/07 04:47:08;;;;;;;10.38;7.85;;;18.00;95.00;;;;;;5014062;28;20213;-36
2023/06/07 04:49:51;;;;;;;12.48;8.25;;;18.00;95.00;;;;;;5015729;28;20215;-36
2023/06/07 04:52:19;;;;;;;10.55;8.25;;;18.00;95.10;;;;;;5004458;28;20212;-35
2023/06/07 04:54:49;;;;;;;11.55;7.97;;;18.00;95.20;;;;;;5017949;28;20244;-35
2023/06/07 04:57:22;;;;;;;12.90;8.88;;;18.00;95.00;;;;;;5020494;28;20598;-36
2023/06/07 04:59:54;;;;;;;11.68;8.18;;;18.00;95.00;;;;;;5001444;28;20225;-36
2023/06/07 05:02:23;;;;;;;11.93;8.20;;;18.00;95.20;;;;;;5004849;28;20784;-35
2023/06/07 05:04:53;;;;;;;11.57;8.45;;;18.00;95.00;;;;;;5007084;28;20314;-35
2023/06/07 05:07:32;;;;;;;11.10;8.55;;;18.00;95.10;;;;;;5015110;28;20721;-36
2023/06/07 05:09:59;;;;;;;13.52;8.75;;;18.00;95.10;;;;;;5008910;28;20592;-35
2023/06/07 05:12:27;;;;;;;11.25;8.65;;;18.00;95.40;;;;;;5019579;28;20237;-35
2023/06/07 05:14:56;;;;;;;13.40;9.18;;;17.90;95.30;;;;;;5016893;28;20252;-35
2023/06/07 05:17:23;;;;;;;10.80;7.80;;;17.90;95.60;;;;;;5014530;28;20664;-36
2023/06/07 05:19:53;;;;;;;12.95;8.82;;;17.90;95.30;;;;;;5011155;28;20295;-35
2023/06/07 05:22:23;;;;;;;12.88;8.98;;;18.00;95.50;;;;;;4999958;28;20304;-36
2023/06/07 05:24:54;;;;;;;15.25;9.32;;;17.90;95.60;;;;;;5017680;28;20287;-36
2023/06/07 05:27:21;;;;;;;15.10;9.60;;;17.90;95.50;;;;;;5021146;28;20224;-35
2023/06/07 05:29:50;;;;;;;12.55;8.85;;;17.90;95.50;;;;;;5022649;28;20229;-36
2023/06/07 05:32:22;;;;;;;13.18;8.88;;;17.90;95.60;;;;;;5020603;28;20751;-35
2023/06/07 05:34:51;;;;;;;13.50;9.35;;;17.90;95.60;;;;;;5020508;28;20232;-35
2023/06/07 05:37:21;;;;;;;14.82;8.75;;;17.90;95.30;;;;;;5015477;28;20270;-37
2023/06/07 05:39:48;;;;;;;10.93;8.88;;;17.90;95.40;;;;;;5014472;28;20619;-37
2023/06/07 05:42:15;;;;;;;12.70;8.48;;;17.90;95.50;;;;;;5007521;28;20206;-37
2023/06/07 05:44:45;;;;;;;17.05;7.97;;;18.00;95.70;;;;;;5002539;28;20205;-38
2023/06/07 05:47:13;;;;;;;13.55;9.82;;;18.00;95.30;;;;;;5005430;28;20285;-37
2023/06/07 05:49:44;;;;;;;14.23;9.30;;;18.00;95.50;;;;;;5012079;28;20229;-37
2023/06/07 05:52:13;;;;;;;12.75;9.23;;;18.00;95.50;;;;;;5015834;28;20759;-37
2023/06/07 05:54:54;;;;;;;11.68;8.57;;;18.00;95.70;;;;;;5020957;28;20298;-36
2023/06/07 05:57:26;;;;;;;21.27;9.73;;;18.00;95.80;;;;;;5018141;28;20209;-36
2023/06/07 05:59:58;;;;;;;14.90;8.30;;;18.10;95.90;;;;;;5008892;28;20208;-35
2023/06/07 06:02:29;;;;;;;15.27;9.88;;;18.10;95.80;;;;;;5010775;28;20576;-36
2023/06/07 06:04:59;;;;;;;12.38;10.05;;;18.10;95.80;;;;;;5019737;28;20216;-36
2023/06/07 06:07:29;;;;;;;15.43;10.18;;;18.20;95.80;;;;;;5017004;28;20225;-36
2023/06/07 06:09:58;;;;;;;17.25;11.10;;;18.30;95.90;;;;;;5021259;28;20651;-36
2023/06/07 06:12:28;;;;;;;17.35;11.15;;;18.40;96.10;;;;;;5013556;28;20244;-36
2023/06/07 06:14:55;;;;;;;15.75;10.75;;;18.40;96.40;;;;;;5019079;28;20298;-36
2023/06/07 06:17:22;;;;;;;13.30;9.63;;;18.40;96.00;;;;;;4996865;28;20213;-36
2023/06/07 06:19:52;;;;;;;12.52;9.32;;;18.50;95.90;;;;;;5016731;28;20197;-36
2023/06/07 06:22:22;;;;;;;15.30;10.40;;;18.50;95.80;;;;;;5022450;28;20363;-38
2023/06/07 06:24:51;;;;;;;18.48;11.68;;;18.60;96.00;;;;;;5024053;28;20258;-38
2023/06/07 06:27:25;;;;;;;16.33;10.57;;;18.60;96.30;;;;;;5025051;28;20216;-38
2023/06/07 06:29:52;;;;;;;15.07;10.60;;;18.60;96.00;;;;;;5017119;28;20244;-38
2023/06/07 06:32:20;;;;;;;15.50;10.15;;;18.70;96.30;;;;;;5021558;28;20217;-38
2023/06/07 06:34:52;;;;;;;13.73;9.65;;;18.70;96.10;;;;;;5006169;28;20225;-38
2023/06/07 06:37:20;;;;;;;14.93;10.27;;;18.80;96.10;;;;;;5024712;28;20739;-38
2023/06/07 06:39:48;;;;;;;13.95;10.30;;;18.80;96.20;;;;;;5016635;28;20492;-39
2023/06/07 06:42:20;;;;;;;16.65;10.57;;;18.90;96.30;;;;;;5019179;28;20632;-39
2023/06/07 06:44:47;;;;;;;16.35;10.32;;;19.00;96.60;;;;;;5022268;28;20227;-38
2023/06/07 06:47:14;;;;;;;14.23;10.10;;;19.00;96.30;;;;;;5024692;28;20255;-42
2023/06/07 06:49:44;;;;;;;13.77;9.15;;;19.10;96.30;;;;;;5012467;28;20585;-39
2023/06/07 06:52:11;;;;;;;13.77;10.32;;;19.20;96.40;;;;;;5019151;28;21066;-39
2023/06/07 06:54:40;;;;;;;14.63;10.80;;;19.30;96.40;;;;;;5007325;28;20576;-39
2023/06/07 06:57:10;;;;;;;17.67;12.25;;;19.40;96.50;;;;;;5022709;28;20263;-39
2023/06/07 06:59:40;;;;;;;15.05;11.27;;;19.40;96.70;;;;;;5021243;28;20287;-39
2023/06/07 07:02:10;;;;;;;15.98;11.68;;;19.40;96.70;;;;;;5020887;28;20622;-39
2023/06/07 07:04:41;;;;;;;14.75;10.18;;;19.50;96.50;;;;;;5014079;28;20221;-39
2023/06/07 07:07:08;;;;;;;16.65;11.40;;;19.50;96.40;;;;;;5015766;28;20263;-38
2023/06/07 07:09:35;;;;;;;17.05;11.30;;;19.50;96.60;;;;;;5024240;28;20264;-38
2023/06/07 07:12:03;;;;;;;16.58;10.80;;;19.50;96.60;;;;;;5015479;28;20237;-39
2023/06/07 07:14:32;;;;;;;18.52;11.45;;;19.50;96.50;;;;;;5023554;28;20675;-38
2023/06/07 07:17:00;;;;;;;14.30;10.30;;;19.50;96.70;;;;;;5023205;28;20312;-38
2023/06/07 07:19:31;;;;;;;16.42;10.70;;;19.50;96.60;;;;;;5021529;28;20486;-39
2023/06/07 07:22:01;;;;;;;17.45;11.05;;;19.60;96.70;;;;;;5016670;28;20213;-39
2023/06/07 07:24:30;;;;;;;16.35;11.02;;;19.60;96.80;;;;;;5022077;28;20217;-39
2023/06/07 07:27:00;;;;;;;17.20;11.55;;;19.60;96.70;;;;;;5011923;28;20250;-39
2023/06/07 07:29:27;;;;;;;15.40;10.80;;;19.60;96.70;;;;;;5017347;28;20234;-39
2023/06/07 07:31:57;;;;;;;19.65;12.50;;;19.60;96.60;;;;;;5020790;28;20224;-39
2023/06/07 07:34:27;;;;;;;18.98;11.55;;;19.60;96.80;;;;;;5018574;28;20264;-39
2023/06/07 07:36:57;;;;;;;15.27;10.70;;;19.50;96.60;;;;;;5022503;28;20287;-39
2023/06/07 07:39:31;;;;;;;15.45;10.93;;;19.50;96.60;;;;;;5017500;28;20548;-39
2023/06/07 07:42:00;;;;;;;15.68;10.45;;;19.60;96.50;;;;;;5019383;28;20202;-39
2023/06/07 07:44:29;;;;;;;17.17;10.95;;;19.60;96.50;;;;;;5004598;28;20320;-39
2023/06/07 07:46:57;;;;;;;13.30;10.15;;;19.60;96.60;;;;;;5022889;28;20275;-39
2023/06/07 07:49:24;;;;;;;14.13;10.45;;;19.60;96.60;;;;;;5008446;28;20232;-39
2023/06/07 07:51:51;;;;;;;17.23;11.90;;;19.70;96.60;;;;;;5011978;28;20626;-39
2023/06/07 07:54:18;;;;;;;15.57;11.35;;;19.70;96.70;;;;;;5024221;28;20259;-39
2023/06/07 07:56:49;;;;;;;18.70;12.48;;;19.80;96.80;;;;;;5019069;28;20209;-39
2023/06/07 07:59:18;;;;;;;15.23;11.18;;;19.80;96.90;;;;;;5022379;28;20201;-39
2023/06/07 08:01:51;;;;;;;18.00;11.48;;;19.80;96.80;;;;;;5023787;28;20220;-39
2023/06/07 08:04:19;;;;;;;14.48;10.43;;;19.90;96.80;;;;;;5017474;28;20255;-39
2023/06/07 08:06:46;;;;;;;17.20;11.18;;;19.90;96.80;;;;;;5017963;28;20300;-40
2023/06/07 08:09:15;;;;;;;15.32;10.65;;;20.00;96.80;;;;;;5022207;28;20219;-38
2023/06/07 08:11:47;;;;;;;16.92;11.20;;;20.00;96.90;;;;;;5016526;28;20230;-39
2023/06/07 08:14:17;;;;;;;17.27;11.82;;;20.10;96.90;;;;;;5021566;28;20213;-39
2023/06/07 08:16:52;;;;;;;18.65;12.75;;;20.10;96.90;;;;;;5021273;28;20224;-39
2023/06/07 08:19:19;;;;;;;16.92;11.93;;;20.20;97.10;;;;;;5020068;28;20917;-39
2023/06/07 08:21:49;;;;;;;18.30;12.55;;;20.10;97.00;;;;;;5023840;28;20633;-39
2023/06/07 08:24:17;;;;;;;18.08;12.35;;;20.20;97.10;;;;;;5023975;28;20208;-39
2023/06/07 08:26:49;;;;;;;19.20;13.07;;;20.20;97.10;;;;;;5022869;28;20691;-39
2023/06/07 08:29:19;;;;;;;19.20;11.85;;;20.20;97.10;;;;;;5007548;28;20659;-39
2023/06/07 08:31:49;;;;;;;18.00;11.43;;;20.20;97.10;;;;;;5021332;28;20639;-38
2023/06/07 08:34:19;;;;;;;17.92;11.75;;;20.30;97.10;;;;;;5020381;28;20611;-38
2023/06/07 08:36:52;;;;;;;13.90;11.35;;;20.30;97.10;;;;;;5012830;28;20221;-38
2023/06/07 08:39:22;;;;;;;20.05;12.48;;;20.30;97.00;;;;;;5004284;28;20205;-38
2023/06/07 08:41:52;;;;;;;14.88;11.07;;;20.40;97.10;;;;;;5002078;28;20201;-38
2023/06/07 08:44:22;;;;;;;16.38;11.13;;;20.40;97.00;;;;;;5019786;28;20238;-38
2023/06/07 08:46:51;;;;;;;16.33;11.75;;;20.50;97.10;;;;;;5021924;28;20221;-38
2023/06/07 08:49:28;;;;;;;15.25;11.68;;;20.50;97.20;;;;;;5014519;28;20197;-38
2023/06/07 08:52:00;;;;;;;16.38;12.50;;;20.60;97.30;;;;;;5019300;28;20568;-38
2023/06/07 08:54:43;;;;;;;19.45;11.48;;;20.60;97.20;;;;;;5018968;28;20233;-38
2023/06/07 08:57:18;;;;;;;16.38;12.50;;;20.70;97.20;;;;;;5019650;28;20272;-38
2023/06/07 08:59:46;;;;;;;18.75;11.85;;;20.70;97.20;;;;;;5002260;28;20240;-38
2023/06/07 09:02:14;;;;;;;14.82;10.05;;;20.80;97.20;;;;;;5009351;28;20319;-38
2023/06/07 09:04:44;;;;;;;14.07;11.52;;;20.80;97.20;;;;;;5015080;28;20494;-38
2023/06/07 09:07:12;;;;;;;15.27;11.50;;;20.80;97.30;;;;;;5010892;28;20209;-39
2023/06/07 09:09:40;;;;;;;15.80;11.35;;;20.90;97.30;;;;;;5017712;28;20311;-35
2023/06/07 09:12:13;;;;;;;15.88;12.10;;;20.90;97.30;;;;;;5008298;28;20216;-35
2023/06/07 09:14:40;;;;;;;14.23;10.07;;;21.00;97.40;;;;;;5020657;28;20303;-35
2023/06/07 09:17:08;;;;;;;14.45;10.65;;;21.10;97.40;;;;;;5015788;28;20285;-36
2023/06/07 09:19:40;;;;;;;16.58;10.88;;;21.20;97.50;;;;;;5010312;28;20207;-35
2023/06/07 09:22:09;;;;;;;15.32;11.05;;;21.30;97.60;;;;;;5011474;28;20215;-35
2023/06/07 09:24:40;;;;;;;14.05;11.00;;;21.30;97.60;;;;;;5006881;28;20785;-36
2023/06/07 09:27:08;;;;;;;18.00;12.43;;;21.40;97.60;;;;;;5002579;28;20328;-36
2023/06/07 09:29:42;;;;;;;23.13;12.93;;;21.40;97.60;;;;;;5018287;28;20323;-36
2023/06/07 09:32:26;;;;;;;19.10;11.48;;;21.50;97.60;;;;;;5012914;28;20236;-36
2023/06/07 09:35:14;;;;;;;17.70;11.63;;;21.60;97.60;;;;;;5016826;28;20204;-36
2023/06/07 09:37:51;;;;;;;12.80;9.60;;;21.60;97.70;;;;;;5013931;28;20236;-36
2023/06/07 09:40:18;;;;;;;13.48;11.00;;;21.70;97.70;;;;;;5018099;28;20600;-36
2023/06/07 09:42:57;;;;;;;15.32;10.88;;;21.80;97.70;;;;;;5020446;28;20236;-36
2023/06/07 09:45:30;;;;;;;18.30;12.88;;;21.80;97.70;;;;;;5022620;28;20228;-36
2023/06/07 09:48:07;;;;;;;19.23;12.00;;;21.90;97.80;;;;;;5020335;28;20380;-36
2023/06/07 09:50:35;;;;;;;18.42;11.18;;;22.00;98.10;;;;;;5009209;28;20686;-36
2023/06/07 09:53:04;;;;;;;21.10;11.95;;;22.00;97.80;;;;;;5017517;28;20208;-36
2023/06/07 09:55:36;;;;;;;18.17;11.40;;;22.10;97.80;;;;;;5009130;28;20248;-36
2023/06/07 09:58:20;;;;;;;14.35;9.98;;;22.20;98.20;;;;;;5018589;28;20201;-36
2023/06/07 10:00:50;;;;;;;11.23;9.15;;;22.20;97.80;;;;;;5026163;28;20213;-36
2023/06/07 10:03:22;;;;;;;17.23;12.57;;;22.30;97.90;;;;;;5015244;28;20743;-36
2023/06/07 10:05:54;;;;;;;14.45;10.07;;;22.30;97.90;;;;;;5016917;28;20753;-40
2023/06/07 10:08:22;;;;;;;13.38;10.02;;;22.40;97.90;;;;;;5018639;28;20228;-40
2023/06/07 10:10:52;;;;;;;15.32;10.05;;;22.50;98.00;;;;;;5013954;28;20707;-41
2023/06/07 10:13:21;;;;;;;17.05;9.73;;;22.60;98.00;;;;;;5022839;28;20690;-40
2023/06/07 10:15:49;;;;;;;11.82;9.38;;;22.70;98.10;;;;;;5022890;28;20229;-40
2023/06/07 10:18:26;;;;;;;15.60;10.52;;;22.70;98.10;;;;;;5022594;28;20233;-40
2023/06/07 10:21:14;;;;;;;12.57;9.48;;;22.80;98.00;;;;;;5017647;28;20311;-40
2023/06/07 10:23:57;;;;;;;12.75;10.05;;;22.90;97.80;;;;;;5017967;28;20292;-41
2023/06/07 10:26:47;;;;;;;14.70;9.00;;;23.00;97.90;;;;;;5019870;28;20625;-41
2023/06/07 10:29:43;;;;;;;16.67;11.70;;;23.10;98.00;;;;;;5004797;28;20225;-41
2023/06/07 10:32:15;;;;;;;13.82;10.25;;;23.10;97.80;;;;;;5019392;28;20297;-41
2023/06/07 10:34:46;;;;;;;15.48;10.82;;;23.10;97.90;;;;;;5020187;28;20268;-41
2023/06/07 10:37:16;;;;;;;14.07;10.05;;;23.20;97.80;;;;;;5022242;28;20228;-41
2023/06/07 10:39:47;;;;;;;14.23;9.23;;;23.20;97.80;;;;;;5017265;28;20224;-41
2023/06/07 10:42:22;;;;;;;12.23;8.32;;;23.30;97.90;;;;;;5012580;28;20205;-40
2023/06/07 10:44:54;;;;;;;12.80;8.45;;;23.30;98.00;;;;;;5015195;28;20201;-40
2023/06/07 10:47:22;;;;;;;11.63;9.02;;;23.50;98.10;;;;;;5018443;28;20222;-40
2023/06/07 10:49:53;;;;;;;14.25;9.65;;;23.50;98.20;;;;;;5007005;28;20232;-40
2023/06/07 10:52:21;;;;;;;11.68;9.00;;;23.60;98.20;;;;;;5018771;28;20679;-36
2023/06/07 10:54:53;;;;;;;14.75;9.13;;;23.70;98.20;;;;;;5020087;28;20227;-36
2023/06/07 10:57:50;;;;;;;13.35;8.35;;;23.80;98.30;;;;;;5019591;28;20714;-36
2023/06/07 11:00:30;;;;;;;16.55;9.13;;;23.90;98.30;;;;;;5014347;28;20299;-36
2023/06/07 11:03:09;;;;;;;17.15;9.80;;;24.00;98.40;;;;;;5015476;28;20210;-36
2023/06/07 11:05:55;;;;;;;15.38;10.13;;;24.00;98.20;;;;;;5010609;28;20589;-36
2023/06/07 11:08:31;;;;;;;11.85;8.50;;;24.10;98.10;;;;;;5017552;28;20217;-36
2023/06/07 11:11:02;;;;;;;15.15;9.98;;;24.20;98.20;;;;;;5018085;28;20642;-36
2023/06/07 11:13:44;;;;;;;12.13;8.20;;;24.20;98.10;;;;;;5017229;28;20777;-36
2023/06/07 11:16:24;;;;;;;20.02;9.43;;;24.30;98.10;;;;;;5017770;28;20225;-36
2023/06/07 11:19:09;;;;;;;20.17;8.73;;;24.40;98.20;;;;;;5021245;28;20720;-36
2023/06/07 11:21:57;;;;;;;17.50;8.80;;;24.50;98.30;;;;;;5021066;28;20244;-36
2023/06/07 11:24:27;;;;;;;23.25;8.07;;;24.60;98.20;;;;;;5021084;28;20283;-36
2023/06/07 11:26:56;;;;;;;12.25;8.43;;;24.70;98.40;;;;;;5019750;28;20675;-36
2023/06/07 11:29:23;;;;;;;13.80;9.15;;;24.80;98.40;;;;;;5018753;28;20803;-36
2023/06/07 11:32:03;;;;;;;12.98;8.50;;;24.90;98.30;;;;;;5018518;28;20609;-36
2023/06/07 11:34:31;;;;;;;10.20;7.65;;;25.00;98.30;;;;;;5016147;28;20279;-36
2023/06/07 11:37:16;;;;;;;11.23;8.13;;;25.00;98.40;;;;;;5017493;28;20259;-36
2023/06/07 11:39:44;;;;;;;20.30;7.90;;;25.20;98.40;;;;;;5018371;28;20976;-36
2023/06/07 11:42:14;;;;;;;15.30;9.07;;;25.20;98.60;;;;;;5016398;28;20225;-36
2023/06/07 11:44:43;;;;;;;12.13;8.68;;;25.30;98.40;;;;;;5020130;28;20216;-36
2023/06/07 11:47:11;;;;;;;18.30;9.68;;;25.30;98.30;;;;;;5002473;28;20627;-36
2023/06/07 11:49:40;;;;;;;12.13;9.10;;;25.40;98.20;;;;;;5018577;28;20207;-36
2023/06/07 11:52:13;;;;;;;9.43;7.57;;;25.30;98.10;;;;;;5013183;28;20201;-36
2023/06/07 11:54:42;;;;;;;15.48;9.75;;;25.40;98.00;;;;;;5017556;28;20240;-36
2023/06/07 11:57:09;;;;;;;15.52;8.73;;;25.30;97.90;;;;;;4999337;28;20997;-36
2023/06/07 11:59:37;;;;;;;12.13;8.23;;;25.30;97.90;;;;;;5021486;28;20229;-36
2023/06/07 12:02:04;;;;;;;14.60;9.05;;;25.30;97.90;;;;;;5013195;28;20218;-36
2023/06/07 12:04:35;;;;;;;13.10;8.30;;;25.30;97.80;;;;;;5021485;28;20686;-36
2023/06/07 12:07:31;;;;;;;15.05;7.97;;;25.40;98.00;;;;;;5018712;28;20327;-36
2023/06/07 12:10:00;;;;;;;12.48;8.65;;;25.40;97.90;;;;;;5014091;28;20237;-41
2023/06/07 12:12:29;;;;;;;17.05;8.25;;;25.40;98.10;;;;;;5020166;28;20232;-41
2023/06/07 12:15:04;;;;;;;14.20;9.73;;;25.60;98.20;;;;;;5007332;28;20217;-41
2023/06/07 12:17:35;;;;;;;13.73;9.60;;;25.60;97.80;;;;;;5002610;28;20217;-41
2023/06/07 12:20:11;;;;;;;14.95;8.93;;;25.60;97.80;;;;;;5014180;28;20299;-41
2023/06/07 12:22:39;;;;;;;15.77;9.80;;;25.70;98.00;;;;;;5004688;28;20240;-36
2023/06/07 12:25:13;;;;;;;12.80;9.65;;;25.70;97.90;;;;;;5019486;28;20694;-36
2023/06/07 12:27:47;;;;;;;18.35;9.80;;;25.70;97.60;;;;;;5022150;28;20290;-35
2023/06/07 12:30:19;;;;;;;16.60;8.40;;;25.60;97.30;;;;;;5017784;28;20217;-36
2023/06/07 12:32:56;;;;;;;13.30;8.48;;;25.70;97.60;;;;;;5020032;28;20212;-36
2023/06/07 12:35:30;;;;;;;13.48;7.15;;;25.70;97.70;;;;;;5020954;28;20278;-36
2023/06/07 12:38:00;;;;;;;14.98;8.40;;;25.70;97.80;;;;;;5007169;28;20225;-36
2023/06/07 12:40:29;;;;;;;15.63;8.13;;;25.70;97.30;;;;;;5008453;28;20204;-36
2023/06/07 12:42:56;;;;;;;13.10;8.15;;;25.70;97.10;;;;;;5017782;28;20288;-36
2023/06/07 12:45:26;;;;;;;13.73;7.50;;;25.70;97.00;;;;;;5020429;28;20758;-35
2023/06/07 12:47:58;;;;;;;26.75;10.45;;;25.70;97.30;;;;;;5020566;28;20223;-36
2023/06/07 12:50:25;;;;;;;13.23;6.97;;;25.70;97.40;;;;;;5017788;28;20197;-36
2023/06/07 12:52:55;;;;;;;11.57;7.38;;;25.70;97.20;;;;;;5010626;28;20571;-36
2023/06/07 12:55:25;;;;;;;11.30;7.30;;;25.70;97.30;;;;;;5001316;28;20319;-36